Time,TemperatureF,DewpointF,PressureIn,WindDirection,WindDirectionDegrees,WindSpeedMPH,WindSpeedGustMPH,Humidity,HourlyPrecipIn,Conditions,Clouds,dailyrainin,SoftwareType,DateUTC
2013-02-15 00:00:00,36.7,33.8,29.73,SW,227,6.0,6.0,89,0.00,RA,,0.00,WeatherDisplay:10.37,2013-02-15 05:00:00,
2013-02-15 00:02:00,36.7,33.8,29.73,SW,225,5.8,5.8,89,0.00,RA,,0.00,WeatherDisplay:10.37,2013-02-15 05:02:00,
2013-02-15 00:07:00,36.9,34.0,29.73,SW,225,5.8,5.8,89,0.00,RA,,0.00,WeatherDisplay:10.37,2013-02-15 05:07:00,
2013-02-15 00:12:00,37.0,34.3,29.73,WSW,248,4.6,4.6,90,0.00,CLR,,0.00,WeatherDisplay:10.37,2013-02-15 05:12:00,
2013-02-15 00:17:00,37.0,34.1,29.74,SW,225,3.5,3.5,89,0.00,CLR,,0.00,WeatherDisplay:10.37,2013-02-15 05:17:00,
2013-02-15 00:22:00,37.4,34.5,29.74,SW,225,4.6,4.6,89,0.00,CLR,,0.00,WeatherDisplay:10.37,2013-02-15 05:22:00,
2013-02-15 00:27:00,37.4,34.5,29.75,SW,225,3.5,3.5,89,0.00,CLR,,0.00,WeatherDisplay:10.37,2013-02-15 05:27:00,
2013-02-15 00:32:00,37.6,34.7,29.75,SSW,202,5.8,5.9,89,0.00,FEW,,0.00,WeatherDisplay:10.37,2013-02-15 05:32:00,
2013-02-15 00:37:00,37.9,34.7,29.75,SW,225,5.8,5.8,88,0.00,FEW,,0.00,WeatherDisplay:10.37,2013-02-15 05:37:00,
2013-02-15 00:42:00,38.3,34.8,29.75,SW,225,8.1,8.1,87,0.00,FEW,,0.00,WeatherDisplay:10.37,2013-02-15 05:42:00,
2013-02-15 00:47:00,38.7,35.2,29.75,SW,225,11.5,11.5,87,0.00,FEW,,0.00,WeatherDisplay:10.37,2013-02-15 05:47:00,
2013-02-15 00:52:00,38.7,35.2,29.75,SW,225,8.1,8.1,87,0.00,FEW,,0.00,WeatherDisplay:10.37,2013-02-15 05:52:00,
2013-02-15 00:57:00,38.5,35.0,29.75,SW,225,6.9,7.2,87,0.00,FEW,,0.00,WeatherDisplay:10.37,2013-02-15 05:57:00,
2013-02-15 01:02:00,38.7,35.2,29.74,SW,225,9.2,9.2,87,0.00,BKN,,0.00,WeatherDisplay:10.37,2013-02-15 06:02:00,
2013-02-15 01:07:00,38.5,35.3,29.74,SW,225,5.8,5.9,88,0.00,BKN,,0.00,WeatherDisplay:10.37,2013-02-15 06:07:00,
2013-02-15 01:12:00,38.5,35.3,29.74,WSW,248,8.3,8.3,88,0.00,BKN,,0.00,WeatherDisplay:10.37,2013-02-15 06:12:00,
2013-02-15 01:17:00,38.5,35.3,29.75,SW,225,6.3,6.3,88,0.00,BKN,,0.00,WeatherDisplay:10.37,2013-02-15 06:17:00,
2013-02-15 01:22:00,38.5,35.3,29.75,SW,225,5.8,5.8,88,0.00,BKN,,0.00,WeatherDisplay:10.37,2013-02-15 06:22:00,
2013-02-15 01:27:00,38.8,35.6,29.75,SSW,202,8.3,8.3,88,0.00,BKN,,0.00,WeatherDisplay:10.37,2013-02-15 06:27:00,
2013-02-15 01:32:00,38.8,35.6,29.75,WSW,248,10.4,10.4,88,0.00,OVC,,0.00,WeatherDisplay:10.37,2013-02-15 06:32:00,
2013-02-15 01:37:00,39.0,35.2,29.75,WSW,248,17.6,17.6,86,0.00,OVC,,0.00,WeatherDisplay:10.37,2013-02-15 06:37:00,
2013-02-15 01:42:00,39.0,35.5,29.75,WSW,248,10.4,10.4,87,0.00,OVC,,0.00,WeatherDisplay:10.37,2013-02-15 06:42:00,
2013-02-15 01:47:00,38.7,35.2,29.75,WSW,248,10.4,10.4,87,0.00,OVC,,0.00,WeatherDisplay:10.37,2013-02-15 06:47:00,
2013-02-15 01:52:00,38.7,35.5,29.75,WSW,248,10.4,10.4,88,0.00,OVC,,0.00,WeatherDisplay:10.37,2013-02-15 06:52:00,
2013-02-15 01:57:00,38.5,35.3,29.75,WSW,248,9.2,9.2,88,0.00,OVC,,0.00,WeatherDisplay:10.37,2013-02-15 06:57:00,
2013-02-15 02:02:00,38.3,35.1,29.75,SW,225,9.2,9.2,88,0.00,OVC,,0.00,WeatherDisplay:10.37,2013-02-15 07:02:00,
2013-02-15 02:07:00,38.3,35.3,29.75,SW,225,6.9,7.1,89,0.00,OVC,,0.00,WeatherDisplay:10.37,2013-02-15 07:07:00,
2013-02-15 02:12:00,38.3,35.3,29.75,SW,225,9.9,9.9,89,0.00,OVC,,0.00,WeatherDisplay:10.37,2013-02-15 07:12:00,
2013-02-15 02:17:00,38.5,35.3,29.76,WSW,248,10.4,10.7,88,0.00,OVC,,0.00,WeatherDisplay:10.37,2013-02-15 07:17:00,
2013-02-15 02:22:00,38.5,35.3,29.76,SW,225,9.9,9.9,88,0.00,OVC,,0.00,WeatherDisplay:10.37,2013-02-15 07:22:00,
2013-02-15 02:27:00,38.5,35.3,29.76,SW,225,9.2,9.7,88,0.00,OVC,,0.00,WeatherDisplay:10.37,2013-02-15 07:27:00,
2013-02-15 02:32:00,38.5,35.3,29.76,SSW,202,10.4,10.4,88,0.00,OVC,,0.00,WeatherDisplay:10.37,2013-02-15 07:32:00,
2013-02-15 02:37:00,38.5,35.3,29.76,SW,225,11.5,11.5,88,0.00,OVC,,0.00,WeatherDisplay:10.37,2013-02-15 07:37:00,
2013-02-15 02:42:00,38.3,35.1,29.76,SW,225,9.2,9.2,88,0.00,OVC,,0.00,WeatherDisplay:10.37,2013-02-15 07:42:00,
2013-02-15 02:47:00,38.3,35.1,29.76,WSW,248,11.5,11.5,88,0.00,OVC,,0.00,WeatherDisplay:10.37,2013-02-15 07:47:00,
2013-02-15 02:52:00,38.3,34.8,29.76,West,270,10.9,10.9,87,0.00,OVC,,0.00,WeatherDisplay:10.37,2013-02-15 07:52:00,
2013-02-15 02:57:00,38.1,34.0,29.76,West,270,10.9,10.9,85,0.00,OVC,,0.00,WeatherDisplay:10.37,2013-02-15 07:57:00,
2013-02-15 03:02:00,37.8,33.4,29.77,SSW,202,15.0,15.0,84,0.00,OVC,,0.00,WeatherDisplay:10.37,2013-02-15 08:02:00,
2013-02-15 03:07:00,37.8,33.1,29.77,WSW,248,15.0,15.0,83,0.00,OVC,,0.00,WeatherDisplay:10.37,2013-02-15 08:07:00,
2013-02-15 03:12:00,37.6,32.0,29.77,SW,225,16.1,16.1,80,0.00,OVC,,0.00,WeatherDisplay:10.37,2013-02-15 08:12:00,
2013-02-15 03:17:00,37.6,30.7,29.77,WSW,248,19.6,19.6,76,0.00,OVC,,0.00,WeatherDisplay:10.37,2013-02-15 08:17:00,
2013-02-15 03:22:00,36.9,30.0,29.77,SW,225,16.1,16.1,76,0.00,OVC,,0.00,WeatherDisplay:10.37,2013-02-15 08:22:00,
2013-02-15 03:27:00,36.7,28.9,29.78,SSW,202,19.6,19.6,73,0.00,OVC,,0.00,WeatherDisplay:10.37,2013-02-15 08:27:00,
2013-02-15 03:32:00,36.1,28.6,29.78,SSW,202,16.1,16.1,74,0.00,OVC,,0.00,WeatherDisplay:10.37,2013-02-15 08:32:00,
2013-02-15 03:37:00,36.1,28.3,29.78,SW,225,16.1,16.1,73,0.00,OVC,,0.00,WeatherDisplay:10.37,2013-02-15 08:37:00,
2013-02-15 03:42:00,36.0,28.2,29.78,West,270,16.1,16.1,73,0.00,OVC,,0.00,WeatherDisplay:10.37,2013-02-15 08:42:00,
2013-02-15 03:47:00,35.6,27.8,29.78,WSW,248,13.8,13.8,73,0.00,OVC,,0.00,WeatherDisplay:10.37,2013-02-15 08:47:00,
2013-02-15 03:52:00,35.4,27.6,29.78,WSW,248,13.8,13.8,73,0.00,OVC,,0.00,WeatherDisplay:10.37,2013-02-15 08:52:00,
2013-02-15 03:57:00,35.2,27.7,29.78,SW,225,10.9,10.9,74,0.00,OVC,,0.00,WeatherDisplay:10.37,2013-02-15 08:57:00,
2013-02-15 04:02:00,35.2,27.7,29.78,SW,225,10.4,10.6,74,0.00,OVC,,0.00,WeatherDisplay:10.37,2013-02-15 09:02:00,
2013-02-15 04:07:00,35.2,27.7,29.78,SW,225,13.8,13.8,74,0.00,OVC,,0.00,WeatherDisplay:10.37,2013-02-15 09:07:00,
2013-02-15 04:12:00,35.2,27.4,29.78,SW,225,11.5,11.5,73,0.00,OVC,,0.00,WeatherDisplay:10.37,2013-02-15 09:12:00,
2013-02-15 04:17:00,35.1,27.3,29.78,SW,225,15.0,15.0,73,0.00,OVC,,0.00,WeatherDisplay:10.37,2013-02-15 09:17:00,
2013-02-15 04:22:00,35.1,27.3,29.78,SW,225,12.7,12.7,73,0.00,OVC,,0.00,WeatherDisplay:10.37,2013-02-15 09:22:00,
2013-02-15 04:27:00,34.7,26.9,29.79,SW,225,9.2,9.2,73,0.00,OVC,,0.00,WeatherDisplay:10.37,2013-02-15 09:27:00,
2013-02-15 04:32:00,34.5,27.1,29.79,SSW,202,8.1,8.1,74,0.00,OVC,,0.00,WeatherDisplay:10.37,2013-02-15 09:32:00,
2013-02-15 04:37:00,34.3,27.2,29.79,SSW,202,10.4,10.4,75,0.00,OVC,,0.00,WeatherDisplay:10.37,2013-02-15 09:37:00,
2013-02-15 04:42:00,34.0,26.9,29.80,SW,225,8.1,8.1,75,0.00,OVC,,0.00,WeatherDisplay:10.37,2013-02-15 09:42:00,
2013-02-15 04:47:00,33.8,27.0,29.80,SW,225,8.1,8.1,76,0.00,OVC,,0.00,WeatherDisplay:10.37,2013-02-15 09:47:00,
2013-02-15 04:52:00,33.6,27.2,29.81,SW,225,6.9,6.9,77,0.00,OVC,,0.00,WeatherDisplay:10.37,2013-02-15 09:52:00,
2013-02-15 04:57:00,33.3,26.9,29.81,SW,225,4.6,4.6,77,0.00,OVC,,0.00,WeatherDisplay:10.37,2013-02-15 09:57:00,
2013-02-15 05:02:00,33.3,27.2,29.80,WSW,248,4.6,4.6,78,0.00,OVC,,0.00,WeatherDisplay:10.37,2013-02-15 10:02:00,
2013-02-15 05:07:00,33.1,27.0,29.80,WSW,248,5.8,5.8,78,0.00,OVC,,0.00,WeatherDisplay:10.37,2013-02-15 10:07:00,
2013-02-15 05:12:00,32.9,26.8,29.80,WSW,248,5.8,5.8,78,0.00,OVC,,0.00,WeatherDisplay:10.37,2013-02-15 10:12:00,
2013-02-15 05:17:00,32.5,26.7,29.80,SW,225,5.8,5.8,79,0.00,OVC,,0.00,WeatherDisplay:10.37,2013-02-15 10:17:00,
2013-02-15 05:22:00,32.5,26.7,29.80,SW,225,4.6,4.6,79,0.00,OVC,,0.00,WeatherDisplay:10.37,2013-02-15 10:22:00,
2013-02-15 05:27:00,32.4,26.9,29.80,SW,225,3.7,3.7,80,0.00,OVC,,0.00,WeatherDisplay:10.37,2013-02-15 10:27:00,
2013-02-15 05:32:00,32.2,26.7,29.80,SW,225,4.6,4.6,80,0.00,CLR,,0.00,WeatherDisplay:10.37,2013-02-15 10:32:00,
2013-02-15 05:37:00,32.2,27.0,29.80,WSW,248,4.6,4.6,81,0.00,CLR,,0.00,WeatherDisplay:10.37,2013-02-15 10:37:00,
2013-02-15 05:42:00,31.8,26.6,29.81,SW,225,4.6,4.6,81,0.00,CLR,,0.00,WeatherDisplay:10.37,2013-02-15 10:42:00,
2013-02-15 05:47:00,32.0,26.8,29.81,SW,225,4.6,4.6,81,0.00,CLR,,0.00,WeatherDisplay:10.37,2013-02-15 10:47:00,
2013-02-15 05:52:00,31.8,26.9,29.81,SW,225,5.8,5.8,82,0.00,CLR,,0.00,WeatherDisplay:10.37,2013-02-15 10:52:00,
2013-02-15 05:57:00,31.8,27.2,29.81,SW,225,5.3,5.3,83,0.00,CLR,,0.00,WeatherDisplay:10.37,2013-02-15 10:57:00,
2013-02-15 06:02:00,31.6,27.0,29.81,SW,225,4.6,4.6,83,0.00,BKN,,0.00,WeatherDisplay:10.37,2013-02-15 11:02:00,
2013-02-15 06:07:00,31.6,27.3,29.81,SW,225,4.6,4.6,84,0.00,BKN,,0.00,WeatherDisplay:10.37,2013-02-15 11:07:00,
2013-02-15 06:12:00,31.8,27.5,29.81,SW,225,4.6,4.6,84,0.00,BKN,,0.00,WeatherDisplay:10.37,2013-02-15 11:12:00,
2013-02-15 06:17:00,31.8,27.5,29.82,SW,225,3.7,3.7,84,0.00,BKN,,0.00,WeatherDisplay:10.37,2013-02-15 11:17:00,
2013-02-15 06:22:00,32.0,27.7,29.82,SW,225,4.6,4.6,84,0.00,BKN,,0.00,WeatherDisplay:10.37,2013-02-15 11:22:00,
2013-02-15 06:27:00,32.0,27.7,29.82,SW,225,5.8,5.8,84,0.00,BKN,,0.00,WeatherDisplay:10.37,2013-02-15 11:27:00,
2013-02-15 06:32:00,32.2,27.9,29.82,SW,225,3.7,3.7,84,0.00,BKN,,0.00,WeatherDisplay:10.37,2013-02-15 11:32:00,
2013-02-15 06:37:00,32.2,27.9,29.82,SW,225,4.6,4.6,84,0.00,BKN,,0.00,WeatherDisplay:10.37,2013-02-15 11:37:00,
2013-02-15 06:42:00,32.0,28.0,29.82,SW,225,3.5,3.5,85,0.00,BKN,,0.00,WeatherDisplay:10.37,2013-02-15 11:42:00,
2013-02-15 06:47:00,32.0,28.0,29.82,SW,225,4.7,4.7,85,0.00,BKN,,0.00,WeatherDisplay:10.37,2013-02-15 11:47:00,
2013-02-15 06:52:00,32.0,28.3,29.82,SW,225,4.6,4.6,86,0.00,BKN,,0.00,WeatherDisplay:10.37,2013-02-15 11:52:00,
2013-02-15 06:57:00,32.0,28.3,29.82,SW,225,5.8,5.8,86,0.00,BKN,,0.00,WeatherDisplay:10.37,2013-02-15 11:57:00,
2013-02-15 07:02:00,32.0,28.3,29.83,SW,225,5.8,5.8,86,0.00,OVC,,0.00,WeatherDisplay:10.37,2013-02-15 12:02:00,
2013-02-15 07:07:00,32.0,28.3,29.83,WSW,248,5.8,5.8,86,0.00,OVC,,0.00,WeatherDisplay:10.37,2013-02-15 12:07:00,
2013-02-15 07:12:00,32.0,28.3,29.83,WSW,248,5.8,5.8,86,0.00,OVC,,0.00,WeatherDisplay:10.37,2013-02-15 12:12:00,
2013-02-15 07:17:00,32.0,28.3,29.83,SW,225,4.7,4.7,86,0.00,OVC,,0.00,WeatherDisplay:10.37,2013-02-15 12:17:00,
2013-02-15 07:22:00,32.0,28.3,29.83,SW,225,4.7,4.7,86,0.00,OVC,,0.00,WeatherDisplay:10.37,2013-02-15 12:22:00,
2013-02-15 07:27:00,32.0,28.3,29.83,SW,225,5.8,5.8,86,0.00,OVC,,0.00,WeatherDisplay:10.37,2013-02-15 12:27:00,
2013-02-15 07:32:00,32.2,28.5,29.83,SW,225,5.8,5.8,86,0.00,OVC,,0.00,WeatherDisplay:10.37,2013-02-15 12:32:00,
2013-02-15 07:37:00,32.4,28.7,29.83,SW,225,4.7,5.2,86,0.00,OVC,,0.00,WeatherDisplay:10.37,2013-02-15 12:37:00,
2013-02-15 07:42:00,32.5,28.8,29.83,SW,225,5.8,5.8,86,0.00,OVC,,0.00,WeatherDisplay:10.37,2013-02-15 12:42:00,
2013-02-15 07:47:00,32.5,28.8,29.83,SW,225,5.8,5.8,86,0.00,OVC,,0.00,WeatherDisplay:10.37,2013-02-15 12:47:00,
2013-02-15 07:52:00,32.7,29.0,29.83,SW,225,4.7,5.1,86,0.00,OVC,,0.00,WeatherDisplay:10.37,2013-02-15 12:52:00,
2013-02-15 07:57:00,32.7,28.7,29.83,SW,225,6.9,6.9,85,0.00,OVC,,0.00,WeatherDisplay:10.37,2013-02-15 12:57:00,
2013-02-15 08:02:00,32.7,28.7,29.85,SW,225,4.7,4.7,85,0.00,OVC,,0.00,WeatherDisplay:10.37,2013-02-15 13:02:00,
2013-02-15 08:07:00,32.9,28.9,29.85,SW,225,6.9,6.9,85,0.00,OVC,,0.00,WeatherDisplay:10.37,2013-02-15 13:07:00,
2013-02-15 08:12:00,33.1,29.1,29.85,SW,225,5.8,5.8,85,0.00,OVC,,0.00,WeatherDisplay:10.37,2013-02-15 13:12:00,
2013-02-15 08:17:00,33.3,29.0,29.85,WSW,248,5.8,5.8,84,0.00,OVC,,0.00,WeatherDisplay:10.37,2013-02-15 13:17:00,
2013-02-15 08:22:00,33.4,29.1,29.85,SW,225,4.7,4.7,84,0.00,OVC,,0.00,WeatherDisplay:10.37,2013-02-15 13:22:00,
2013-02-15 08:27:00,33.6,29.0,29.85,SW,225,4.7,4.7,83,0.00,OVC,,0.00,WeatherDisplay:10.37,2013-02-15 13:27:00,
2013-02-15 08:32:00,34.0,29.4,29.85,WSW,248,5.8,5.8,83,0.00,OVC,,0.00,WeatherDisplay:10.37,2013-02-15 13:32:00,
2013-02-15 08:37:00,34.2,29.3,29.85,SW,225,7.8,7.8,82,0.00,OVC,,0.00,WeatherDisplay:10.37,2013-02-15 13:37:00,
2013-02-15 08:42:00,34.3,29.4,29.85,SW,225,5.8,5.8,82,0.00,OVC,,0.00,WeatherDisplay:10.37,2013-02-15 13:42:00,
2013-02-15 08:47:00,34.7,29.5,29.85,SW,225,6.3,6.3,81,0.00,OVC,,0.00,WeatherDisplay:10.37,2013-02-15 13:47:00,
2013-02-15 08:52:00,34.9,29.4,29.86,SW,225,6.9,6.9,80,0.00,OVC,,0.00,WeatherDisplay:10.37,2013-02-15 13:52:00,
2013-02-15 08:57:00,34.9,29.4,29.86,SSW,202,8.1,8.1,80,0.00,OVC,,0.00,WeatherDisplay:10.37,2013-02-15 13:57:00,
2013-02-15 09:02:00,35.1,29.2,29.85,WSW,248,5.8,5.8,79,0.00,BKN,,0.00,WeatherDisplay:10.37,2013-02-15 14:02:00,
2013-02-15 09:07:00,35.4,29.5,29.85,SW,225,6.9,6.9,79,0.00,BKN,,0.00,WeatherDisplay:10.37,2013-02-15 14:07:00,
2013-02-15 09:12:00,35.6,29.4,29.85,SW,225,6.9,7.1,78,0.00,BKN,,0.00,WeatherDisplay:10.37,2013-02-15 14:12:00,
2013-02-15 09:17:00,35.8,29.3,29.86,WSW,248,9.2,9.2,77,0.00,BKN,,0.00,WeatherDisplay:10.37,2013-02-15 14:17:00,
2013-02-15 09:22:00,36.1,29.6,29.86,SW,225,9.2,9.2,77,0.00,BKN,,0.00,WeatherDisplay:10.37,2013-02-15 14:22:00,
2013-02-15 09:27:00,36.3,29.8,29.86,WSW,248,9.2,9.2,77,0.00,BKN,,0.00,WeatherDisplay:10.37,2013-02-15 14:27:00,
2013-02-15 09:32:00,36.5,30.0,29.86,SW,225,8.8,8.8,77,0.00,BKN,,0.00,WeatherDisplay:10.37,2013-02-15 14:32:00,
2013-02-15 09:37:00,36.7,29.5,29.86,SW,225,6.9,6.9,75,0.00,BKN,,0.00,WeatherDisplay:10.37,2013-02-15 14:37:00,
2013-02-15 09:42:00,36.9,29.7,29.86,SW,225,9.2,9.2,75,0.00,BKN,,0.00,WeatherDisplay:10.37,2013-02-15 14:42:00,
2013-02-15 09:47:00,36.3,29.8,29.86,SW,225,10.4,10.4,77,0.00,BKN,,0.00,WeatherDisplay:10.37,2013-02-15 14:47:00,
2013-02-15 09:52:00,36.5,29.7,29.86,SW,225,11.4,11.4,76,0.00,BKN,,0.00,WeatherDisplay:10.37,2013-02-15 14:52:00,
2013-02-15 09:57:00,36.7,29.5,29.86,SW,225,10.4,10.4,75,0.00,BKN,,0.00,WeatherDisplay:10.37,2013-02-15 14:57:00,
2013-02-15 10:02:00,36.7,29.5,29.86,West,270,8.1,8.1,75,0.00,BKN,,0.00,WeatherDisplay:10.37,2013-02-15 15:02:00,
2013-02-15 10:07:00,37.4,30.5,29.86,West,270,7.8,7.8,76,0.00,BKN,,0.00,WeatherDisplay:10.37,2013-02-15 15:07:00,
2013-02-15 10:12:00,37.6,30.1,29.86,SSW,202,11.5,11.5,74,0.00,BKN,,0.00,WeatherDisplay:10.37,2013-02-15 15:12:00,
2013-02-15 10:17:00,37.8,29.9,29.86,SW,225,10.4,10.4,73,0.00,BKN,,0.00,WeatherDisplay:10.37,2013-02-15 15:17:00,
2013-02-15 10:22:00,37.9,30.0,29.86,SSW,202,8.1,8.1,73,0.00,BKN,,0.00,WeatherDisplay:10.37,2013-02-15 15:22:00,
2013-02-15 10:27:00,37.9,30.0,29.86,West,270,8.1,8.1,73,0.00,BKN,,0.00,WeatherDisplay:10.37,2013-02-15 15:27:00,
2013-02-15 10:32:00,38.3,30.7,29.86,SSW,202,6.8,6.8,74,0.00,BKN,,0.00,WeatherDisplay:10.37,2013-02-15 15:32:00,
2013-02-15 10:37:00,38.1,29.9,29.86,WSW,248,10.4,10.4,72,0.00,BKN,,0.00,WeatherDisplay:10.37,2013-02-15 15:37:00,
2013-02-15 10:42:00,38.1,29.2,29.86,SW,225,10.4,10.4,70,0.00,BKN,,0.00,WeatherDisplay:10.37,2013-02-15 15:42:00,
2013-02-15 10:47:00,37.9,29.7,29.86,WSW,248,10.4,10.4,72,0.00,BKN,,0.00,WeatherDisplay:10.37,2013-02-15 15:47:00,
2013-02-15 10:52:00,38.5,29.6,29.86,WSW,248,8.3,8.3,70,0.00,BKN,,0.00,WeatherDisplay:10.37,2013-02-15 15:52:00,
2013-02-15 10:57:00,39.0,30.0,29.86,SW,225,11.4,11.4,70,0.00,BKN,,0.00,WeatherDisplay:10.37,2013-02-15 15:57:00,
2013-02-15 11:02:00,38.7,29.8,29.86,WSW,248,10.4,10.4,70,0.00,OVC,,0.00,WeatherDisplay:10.37,2013-02-15 16:02:00,
2013-02-15 11:07:00,39.0,30.0,29.86,SW,225,9.9,10.1,70,0.00,OVC,,0.00,WeatherDisplay:10.37,2013-02-15 16:07:00,
2013-02-15 11:12:00,38.7,29.8,29.86,WSW,248,13.5,13.5,70,0.00,OVC,,0.00,WeatherDisplay:10.37,2013-02-15 16:12:00,
2013-02-15 11:17:00,38.1,28.8,29.86,WSW,248,13.8,13.8,69,0.00,OVC,,0.00,WeatherDisplay:10.37,2013-02-15 16:17:00,
2013-02-15 11:22:00,38.1,29.2,29.86,WSW,248,13.8,13.8,70,0.00,OVC,,0.00,WeatherDisplay:10.37,2013-02-15 16:22:00,
2013-02-15 11:27:00,38.1,29.2,29.86,WSW,248,13.0,13.0,70,0.00,OVC,,0.00,WeatherDisplay:10.37,2013-02-15 16:27:00,
2013-02-15 11:32:00,37.6,27.6,29.86,SSW,202,16.1,16.1,67,0.00,OVC,,0.00,WeatherDisplay:10.37,2013-02-15 16:32:00,
2013-02-15 11:37:00,37.6,27.6,29.86,WSW,248,16.1,16.1,67,0.00,OVC,,0.00,WeatherDisplay:10.37,2013-02-15 16:37:00,
2013-02-15 11:42:00,37.8,27.8,29.86,WSW,248,15.0,15.0,67,0.00,OVC,,0.00,WeatherDisplay:10.37,2013-02-15 16:42:00,
2013-02-15 11:47:00,38.3,28.3,29.86,SW,225,13.8,13.8,67,0.00,OVC,,0.00,WeatherDisplay:10.37,2013-02-15 16:47:00,
2013-02-15 11:52:00,38.1,28.8,29.85,WSW,248,14.0,14.0,69,0.00,OVC,,0.00,WeatherDisplay:10.37,2013-02-15 16:52:00,
2013-02-15 11:57:00,38.1,28.8,29.85,SW,225,13.8,13.8,69,0.00,OVC,,0.00,WeatherDisplay:10.37,2013-02-15 16:57:00,
2013-02-15 12:02:00,38.5,28.9,29.85,SW,225,13.8,13.8,68,0.00,OVC,,0.00,WeatherDisplay:10.37,2013-02-15 17:02:00,
2013-02-15 12:07:00,38.3,29.0,29.85,WSW,248,10.4,10.4,69,0.00,OVC,,0.00,WeatherDisplay:10.37,2013-02-15 17:07:00,
2013-02-15 12:12:00,39.0,28.6,29.85,SW,225,13.8,13.8,66,0.00,OVC,,0.00,WeatherDisplay:10.37,2013-02-15 17:12:00,
2013-02-15 12:17:00,38.8,28.0,29.85,SW,225,9.2,9.2,65,0.00,OVC,,0.00,WeatherDisplay:10.37,2013-02-15 17:17:00,
2013-02-15 12:22:00,38.8,28.0,29.85,SW,225,8.8,8.9,65,0.00,OVC,,0.00,WeatherDisplay:10.37,2013-02-15 17:22:00,
2013-02-15 12:27:00,38.8,27.7,29.84,SW,225,14.0,14.0,64,0.00,OVC,,0.00,WeatherDisplay:10.37,2013-02-15 17:27:00,
2013-02-15 12:32:00,39.2,27.7,29.84,South,180,11.5,11.5,63,0.00,OVC,,0.00,WeatherDisplay:10.37,2013-02-15 17:32:00,
2013-02-15 12:37:00,39.0,27.5,29.84,SSW,202,13.8,13.8,63,0.00,OVC,,0.00,WeatherDisplay:10.37,2013-02-15 17:37:00,
2013-02-15 12:42:00,39.2,27.3,29.84,SW,225,10.4,10.4,62,0.00,OVC,,0.00,WeatherDisplay:10.37,2013-02-15 17:42:00,
2013-02-15 12:47:00,38.5,27.4,29.84,SW,225,11.4,11.4,64,0.00,OVC,,0.00,WeatherDisplay:10.37,2013-02-15 17:47:00,
2013-02-15 12:52:00,38.1,27.0,29.84,WSW,248,13.8,13.8,64,0.00,OVC,,0.00,WeatherDisplay:10.37,2013-02-15 17:52:00,
2013-02-15 12:57:00,38.8,27.7,29.84,SW,225,9.2,9.2,64,0.00,OVC,,0.00,WeatherDisplay:10.37,2013-02-15 17:57:00,
2013-02-15 13:02:00,39.2,28.0,29.83,WSW,248,12.7,12.7,64,0.00,OVC,,0.00,WeatherDisplay:10.37,2013-02-15 18:02:00,
2013-02-15 13:07:00,39.2,27.7,29.83,SW,225,11.5,11.5,63,0.00,OVC,,0.00,WeatherDisplay:10.37,2013-02-15 18:07:00,
2013-02-15 13:12:00,38.3,27.6,29.83,WSW,248,16.1,16.1,65,0.00,OVC,,0.00,WeatherDisplay:10.37,2013-02-15 18:12:00,
2013-02-15 13:17:00,38.1,27.7,29.83,SW,225,15.0,15.0,66,0.00,OVC,,0.00,WeatherDisplay:10.37,2013-02-15 18:17:00,
2013-02-15 13:22:00,38.8,28.8,29.83,SW,225,12.4,12.4,67,0.00,OVC,,0.00,WeatherDisplay:10.37,2013-02-15 18:22:00,
2013-02-15 13:27:00,38.7,29.0,29.82,WSW,248,11.5,11.5,68,0.00,OVC,,0.00,WeatherDisplay:10.37,2013-02-15 18:27:00,
2013-02-15 13:32:00,38.3,29.0,29.82,WSW,248,11.5,11.5,69,0.00,OVC,,0.00,WeatherDisplay:10.37,2013-02-15 18:32:00,
2013-02-15 13:37:00,38.3,29.0,29.83,SW,225,11.5,11.5,69,0.00,OVC,,0.00,WeatherDisplay:10.37,2013-02-15 18:37:00,
2013-02-15 13:42:00,38.1,28.8,29.83,SW,225,12.7,12.7,69,0.00,OVC,,0.00,WeatherDisplay:10.37,2013-02-15 18:42:00,
2013-02-15 13:47:00,38.3,29.0,29.83,WSW,248,9.2,9.2,69,0.00,OVC,,0.00,WeatherDisplay:10.37,2013-02-15 18:47:00,
2013-02-15 13:52:00,38.5,29.2,29.83,SW,225,6.9,6.9,69,0.00,OVC,,0.00,WeatherDisplay:10.37,2013-02-15 18:52:00,
2013-02-15 13:57:00,38.3,29.0,29.83,SW,225,10.4,10.4,69,0.00,OVC,,0.00,WeatherDisplay:10.37,2013-02-15 18:57:00,
2013-02-15 14:02:00,38.3,28.7,29.82,SSW,202,9.2,9.2,68,0.00,OVC,,0.00,WeatherDisplay:10.37,2013-02-15 19:02:00,
2013-02-15 14:07:00,38.7,29.4,29.82,SW,225,8.1,8.1,69,0.00,OVC,,0.00,WeatherDisplay:10.37,2013-02-15 19:07:00,
2013-02-15 14:12:00,38.5,29.6,29.82,WSW,248,10.4,10.4,70,0.00,OVC,,0.00,WeatherDisplay:10.37,2013-02-15 19:12:00,
2013-02-15 14:17:00,38.5,29.6,29.82,SW,225,8.1,8.1,70,0.00,OVC,,0.00,WeatherDisplay:10.37,2013-02-15 19:17:00,
2013-02-15 14:22:00,38.8,29.5,29.82,SW,225,6.9,6.9,69,0.00,OVC,,0.00,WeatherDisplay:10.37,2013-02-15 19:22:00,
2013-02-15 14:27:00,38.8,29.5,29.82,SW,225,10.4,10.4,69,0.00,OVC,,0.00,WeatherDisplay:10.37,2013-02-15 19:27:00,
2013-02-15 14:32:00,38.8,29.5,29.82,WSW,248,9.2,9.2,69,0.00,OVC,,0.00,WeatherDisplay:10.37,2013-02-15 19:32:00,
2013-02-15 14:37:00,38.8,29.5,29.82,SW,225,8.1,8.1,69,0.00,OVC,,0.00,WeatherDisplay:10.37,2013-02-15 19:37:00,
2013-02-15 14:42:00,39.2,30.2,29.82,SSW,202,5.8,5.8,70,0.00,OVC,,0.00,WeatherDisplay:10.37,2013-02-15 19:42:00,
2013-02-15 14:47:00,39.2,29.9,29.82,South,180,6.9,6.9,69,0.00,OVC,,0.00,WeatherDisplay:10.37,2013-02-15 19:47:00,
2013-02-15 14:53:00,38.7,29.8,29.82,SW,225,8.3,8.3,70,0.00,OVC,,0.00,WeatherDisplay:10.37,2013-02-15 19:53:00,
2013-02-15 14:58:00,38.3,29.7,29.82,WSW,248,9.4,9.4,71,0.00,OVC,,0.00,WeatherDisplay:10.37,2013-02-15 19:58:00,
2013-02-15 15:03:00,38.3,29.7,29.82,WSW,248,9.4,9.4,71,0.00,OVC,,0.00,WeatherDisplay:10.37,2013-02-15 20:03:00,
2013-02-15 15:08:00,37.6,29.4,29.82,SW,225,6.9,6.9,72,0.00,OVC,,0.00,WeatherDisplay:10.37,2013-02-15 20:08:00,
2013-02-15 15:13:00,37.2,29.0,29.82,SSW,202,10.4,10.4,72,0.00,OVC,,0.00,WeatherDisplay:10.37,2013-02-15 20:13:00,
2013-02-15 15:18:00,37.4,29.5,29.82,SW,225,9.2,9.2,73,0.00,OVC,,0.00,WeatherDisplay:10.37,2013-02-15 20:18:00,
2013-02-15 15:23:00,37.8,29.9,29.82,SW,225,8.3,8.3,73,0.00,OVC,,0.00,WeatherDisplay:10.37,2013-02-15 20:23:00,
2013-02-15 15:28:00,37.4,30.2,29.82,SW,225,10.4,10.4,75,0.00,OVC,,0.00,WeatherDisplay:10.37,2013-02-15 20:28:00,
2013-02-15 15:33:00,37.4,30.2,29.82,SW,225,11.5,11.5,75,0.00,OVC,,0.00,WeatherDisplay:10.37,2013-02-15 20:33:00,
2013-02-15 15:38:00,37.4,30.5,29.82,SW,225,8.1,8.1,76,0.00,OVC,,0.00,WeatherDisplay:10.37,2013-02-15 20:38:00,
2013-02-15 15:43:00,36.7,31.4,29.82,SW,225,8.1,8.1,81,0.00,OVC,,0.00,WeatherDisplay:10.37,2013-02-15 20:43:00,
2013-02-15 15:48:00,36.7,31.7,29.82,WSW,248,7.8,7.8,82,0.00,OVC,,0.00,WeatherDisplay:10.37,2013-02-15 20:48:00,
2013-02-15 15:53:00,37.0,31.7,29.83,SSW,202,6.9,6.9,81,0.00,OVC,,0.00,WeatherDisplay:10.37,2013-02-15 20:53:00,
2013-02-15 15:58:00,37.0,31.7,29.83,WSW,248,4.6,4.6,81,0.00,OVC,,0.00,WeatherDisplay:10.37,2013-02-15 20:58:00,
2013-02-15 16:03:00,36.7,32.0,29.82,WSW,248,6.8,6.8,83,0.00,OVC,,0.00,WeatherDisplay:10.37,2013-02-15 21:03:00,
2013-02-15 16:08:00,36.0,31.9,29.82,SSW,202,10.4,10.4,85,0.00,OVC,,0.00,WeatherDisplay:10.37,2013-02-15 21:08:00,
2013-02-15 16:13:00,35.6,31.8,29.82,SSW,202,9.2,9.2,86,0.00,OVC,,0.00,WeatherDisplay:10.37,2013-02-15 21:13:00,
2013-02-15 16:18:00,35.2,32.0,29.82,WSW,248,8.1,8.1,88,0.00,OVC,,0.00,WeatherDisplay:10.37,2013-02-15 21:18:00,
2013-02-15 16:23:00,35.1,32.2,29.82,SSW,202,8.1,8.1,89,0.00,OVC,,0.00,WeatherDisplay:10.37,2013-02-15 21:23:00,
2013-02-15 16:28:00,35.1,32.2,29.82,SSW,202,8.1,8.1,89,0.00,OVC,,0.00,WeatherDisplay:10.37,2013-02-15 21:28:00,
2013-02-15 16:33:00,35.1,32.5,29.82,SW,225,7.3,7.3,90,0.00,OVC,,0.00,WeatherDisplay:10.37,2013-02-15 21:33:00,
2013-02-15 16:38:00,35.1,32.7,29.83,SW,225,6.9,6.9,91,0.00,OVC,,0.00,WeatherDisplay:10.37,2013-02-15 21:38:00,
2013-02-15 16:43:00,35.1,33.0,29.83,WSW,248,3.5,3.5,92,0.00,OVC,,0.00,WeatherDisplay:10.37,2013-02-15 21:43:00,
2013-02-15 16:48:00,34.9,32.5,29.83,SW,225,5.8,5.8,91,0.00,OVC,,0.00,WeatherDisplay:10.37,2013-02-15 21:48:00,
2013-02-15 16:53:00,34.9,32.8,29.83,SW,225,4.6,4.6,92,0.00,OVC,,0.00,WeatherDisplay:10.37,2013-02-15 21:53:00,
2013-02-15 16:58:00,34.9,32.8,29.83,WSW,248,5.8,5.8,92,0.00,OVC,,0.00,WeatherDisplay:10.37,2013-02-15 21:58:00,
2013-02-15 17:03:00,34.7,32.6,29.83,SW,225,5.8,5.8,92,0.00,-SN,,0.00,WeatherDisplay:10.37,2013-02-15 22:03:00,
2013-02-15 17:08:00,34.7,32.3,29.83,SW,225,5.8,5.8,91,0.00,-SN,,0.00,WeatherDisplay:10.37,2013-02-15 22:08:00,
2013-02-15 17:13:00,34.7,32.3,29.83,SSW,202,6.9,6.9,91,0.00,-SN,,0.00,WeatherDisplay:10.37,2013-02-15 22:13:00,
2013-02-15 17:18:00,34.7,32.1,29.83,SW,225,5.8,5.8,90,0.00,-SN,,0.00,WeatherDisplay:10.37,2013-02-15 22:18:00,
2013-02-15 17:23:00,34.5,32.1,29.83,SSW,202,4.7,4.7,91,0.00,-SN,,0.00,WeatherDisplay:10.37,2013-02-15 22:23:00,
2013-02-15 17:28:00,34.5,32.1,29.82,SW,225,4.7,4.7,91,0.00,-SN,,0.00,WeatherDisplay:10.37,2013-02-15 22:28:00,
2013-02-15 17:33:00,34.3,31.9,29.82,SW,225,4.7,4.7,91,0.00,-SN,,0.00,WeatherDisplay:10.37,2013-02-15 22:33:00,
2013-02-15 17:38:00,34.3,31.9,29.83,WSW,248,4.7,4.7,91,0.00,-SN,,0.00,WeatherDisplay:10.37,2013-02-15 22:38:00,
2013-02-15 17:43:00,34.2,31.8,29.83,SW,225,4.6,4.6,91,0.00,-SN,,0.00,WeatherDisplay:10.37,2013-02-15 22:43:00,
2013-02-15 17:48:00,34.2,31.3,29.83,SW,225,5.8,5.8,89,0.00,-SN,,0.00,WeatherDisplay:10.37,2013-02-15 22:48:00,
2013-02-15 17:53:00,34.2,30.2,29.83,SW,225,5.8,5.8,85,0.00,-SN,,0.00,WeatherDisplay:10.37,2013-02-15 22:53:00,
2013-02-15 17:58:00,34.0,30.3,29.83,SW,225,5.8,5.8,86,0.00,-SN,,0.00,WeatherDisplay:10.37,2013-02-15 22:58:00,
2013-02-15 18:03:00,33.8,30.1,29.83,WSW,248,7.3,7.3,86,0.00,-SN,,0.00,WeatherDisplay:10.37,2013-02-15 23:03:00,
2013-02-15 18:08:00,33.6,30.7,29.83,WSW,248,3.5,3.5,89,0.00,-SN,,0.00,WeatherDisplay:10.37,2013-02-15 23:08:00,
2013-02-15 18:13:00,33.4,30.5,29.83,SW,225,4.6,4.6,89,0.00,-SN,,0.00,WeatherDisplay:10.37,2013-02-15 23:13:00,
2013-02-15 18:18:00,33.4,30.8,29.83,SW,225,4.6,4.6,90,0.00,-SN,,0.00,WeatherDisplay:10.37,2013-02-15 23:18:00,
2013-02-15 18:23:00,33.3,30.7,29.83,SW,225,4.6,4.6,90,0.00,-SN,,0.00,WeatherDisplay:10.37,2013-02-15 23:23:00,
2013-02-15 18:28:00,32.9,31.1,29.83,SW,225,4.6,4.6,93,0.00,-SN,,0.00,WeatherDisplay:10.37,2013-02-15 23:28:00,
2013-02-15 18:33:00,32.7,31.4,29.83,SW,225,4.6,4.6,95,0.00,OVC,,0.00,WeatherDisplay:10.37,2013-02-15 23:33:00,
2013-02-15 18:38:00,32.7,31.4,29.83,SW,225,4.6,4.6,95,0.00,OVC,,0.00,WeatherDisplay:10.37,2013-02-15 23:38:00,
2013-02-15 18:43:00,32.7,31.4,29.83,SW,225,4.7,4.7,95,0.00,OVC,,0.00,WeatherDisplay:10.37,2013-02-15 23:43:00,
2013-02-15 18:48:00,32.7,31.4,29.83,SW,225,4.7,4.7,95,0.00,OVC,,0.00,WeatherDisplay:10.37,2013-02-15 23:48:00,
2013-02-15 18:53:00,32.9,31.1,29.83,WSW,248,4.6,4.6,93,0.00,OVC,,0.00,WeatherDisplay:10.37,2013-02-15 23:53:00,
2013-02-15 18:58:00,32.9,31.1,29.83,SW,225,4.6,4.6,93,0.00,OVC,,0.00,WeatherDisplay:10.37,2013-02-15 23:58:00,
2013-02-15 19:03:00,32.9,30.8,29.83,SW,225,5.8,5.8,92,0.00,OVC,,0.00,WeatherDisplay:10.37,2013-02-16 00:03:00,
2013-02-15 19:08:00,32.9,30.6,29.83,SW,225,4.6,4.6,91,0.00,OVC,,0.00,WeatherDisplay:10.37,2013-02-16 00:08:00,
2013-02-15 19:13:00,32.9,30.6,29.83,SW,225,4.7,4.7,91,0.00,OVC,,0.00,WeatherDisplay:10.37,2013-02-16 00:13:00,
2013-02-15 19:18:00,32.9,30.3,29.83,SW,225,5.8,5.8,90,0.00,OVC,,0.00,WeatherDisplay:10.37,2013-02-16 00:18:00,
2013-02-15 19:23:00,32.9,30.0,29.83,SW,225,4.2,4.2,89,0.00,OVC,,0.00,WeatherDisplay:10.37,2013-02-16 00:23:00,
2013-02-15 19:28:00,32.7,29.8,29.83,SW,225,4.7,4.7,89,0.00,OVC,,0.00,WeatherDisplay:10.37,2013-02-16 00:28:00,
2013-02-15 19:33:00,32.7,29.8,29.83,SW,225,4.6,4.6,89,0.00,OVC,,0.00,WeatherDisplay:10.37,2013-02-16 00:33:00,
2013-02-15 19:38:00,32.7,29.8,29.83,SW,225,4.6,4.6,89,0.00,OVC,,0.00,WeatherDisplay:10.37,2013-02-16 00:38:00,
2013-02-15 19:43:00,32.7,29.8,29.83,SW,225,3.7,3.7,89,0.00,OVC,,0.00,WeatherDisplay:10.37,2013-02-16 00:43:00,
2013-02-15 19:48:00,32.7,29.8,29.83,SW,225,4.6,4.6,89,0.00,OVC,,0.00,WeatherDisplay:10.37,2013-02-16 00:48:00,
2013-02-15 19:53:00,32.7,29.8,29.83,SW,225,3.7,3.7,89,0.00,OVC,,0.00,WeatherDisplay:10.37,2013-02-16 00:53:00,
2013-02-15 19:58:00,32.7,29.8,29.83,SW,225,3.5,3.5,89,0.00,OVC,,0.00,WeatherDisplay:10.37,2013-02-16 00:58:00,
2013-02-15 20:03:00,32.7,29.8,29.83,SW,225,3.5,3.6,89,0.00,OVC,,0.00,WeatherDisplay:10.37,2013-02-16 01:03:00,
2013-02-15 20:08:00,32.7,29.8,29.83,SW,225,3.7,3.7,89,0.00,OVC,,0.00,WeatherDisplay:10.37,2013-02-16 01:08:00,
2013-02-15 20:13:00,32.7,29.8,29.83,SW,225,3.5,3.5,89,0.00,OVC,,0.00,WeatherDisplay:10.37,2013-02-16 01:13:00,
2013-02-15 20:18:00,32.5,30.2,29.83,SW,225,3.5,3.5,91,0.00,OVC,,0.00,WeatherDisplay:10.37,2013-02-16 01:18:00,
2013-02-15 20:23:00,32.2,30.4,29.83,WSW,248,4.6,4.6,93,0.00,OVC,,0.00,WeatherDisplay:10.37,2013-02-16 01:23:00,
2013-02-15 20:28:00,32.0,30.5,29.83,SW,225,9.4,9.4,94,0.00,OVC,,0.00,WeatherDisplay:10.37,2013-02-16 01:28:00,
2013-02-15 20:33:00,31.6,30.8,29.83,West,270,7.3,7.3,97,0.00,-SN,,0.00,WeatherDisplay:10.37,2013-02-16 01:33:00,
2013-02-15 20:38:00,31.3,31.1,29.83,WSW,248,6.9,6.9,99,0.00,-SN,,0.00,WeatherDisplay:10.37,2013-02-16 01:38:00,
2013-02-15 20:43:00,31.3,31.1,29.83,SW,225,5.8,5.8,99,0.00,-SN,,0.00,WeatherDisplay:10.37,2013-02-16 01:43:00,
2013-02-15 20:48:00,31.1,30.9,29.83,WSW,248,6.9,6.9,99,0.00,-SN,,0.00,WeatherDisplay:10.37,2013-02-16 01:48:00,
2013-02-15 20:53:00,31.1,30.9,29.84,West,270,5.8,5.8,99,0.00,-SN,,0.00,WeatherDisplay:10.37,2013-02-16 01:53:00,
2013-02-15 20:58:00,31.1,30.9,29.84,West,270,8.1,8.1,99,0.00,-SN,,0.00,WeatherDisplay:10.37,2013-02-16 01:58:00,
2013-02-15 21:03:00,31.1,30.9,29.84,WSW,248,8.3,8.3,99,0.00,-SN,,0.00,WeatherDisplay:10.37,2013-02-16 02:03:00,
2013-02-15 21:08:00,30.9,30.7,29.84,West,270,10.4,10.4,99,0.00,-SN,,0.00,WeatherDisplay:10.37,2013-02-16 02:08:00,
2013-02-15 21:13:00,30.7,30.5,29.84,West,270,6.9,6.9,99,0.00,-SN,,0.00,WeatherDisplay:10.37,2013-02-16 02:13:00,
2013-02-15 21:18:00,30.7,30.5,29.84,West,270,5.8,5.8,99,0.00,-SN,,0.00,WeatherDisplay:10.37,2013-02-16 02:18:00,
2013-02-15 21:23:00,30.6,30.4,29.84,West,270,5.8,5.8,99,0.00,-SN,,0.00,WeatherDisplay:10.37,2013-02-16 02:23:00,
2013-02-15 21:28:00,30.6,30.4,29.84,West,270,8.1,8.1,99,0.00,-SN,,0.00,WeatherDisplay:10.37,2013-02-16 02:28:00,
2013-02-15 21:33:00,30.6,30.4,29.84,West,270,6.8,6.8,99,0.00,-SN,,0.00,WeatherDisplay:10.37,2013-02-16 02:33:00,
2013-02-15 21:38:00,30.4,30.2,29.84,West,270,8.1,8.1,99,0.00,-SN,,0.00,WeatherDisplay:10.37,2013-02-16 02:38:00,
2013-02-15 21:43:00,30.4,30.2,29.84,West,270,6.9,6.9,99,0.00,-SN,,0.00,WeatherDisplay:10.37,2013-02-16 02:43:00,
2013-02-15 21:48:00,30.2,30.0,29.84,West,270,9.2,9.2,99,0.00,-SN,,0.00,WeatherDisplay:10.37,2013-02-16 02:48:00,
2013-02-15 21:53:00,30.2,30.0,29.84,West,270,6.8,6.9,99,0.00,-SN,,0.00,WeatherDisplay:10.37,2013-02-16 02:53:00,
2013-02-15 21:58:00,30.2,30.0,29.84,West,270,4.7,4.7,99,0.00,-SN,,0.00,WeatherDisplay:10.37,2013-02-16 02:58:00,
2013-02-15 22:03:00,30.0,29.8,29.85,WNW,292,7.3,7.3,99,0.00,OVC,,0.00,WeatherDisplay:10.37,2013-02-16 03:03:00,
2013-02-15 22:08:00,30.0,29.8,29.85,North,360,4.6,4.6,99,0.00,OVC,,0.00,WeatherDisplay:10.37,2013-02-16 03:08:00,
2013-02-15 22:13:00,30.0,29.3,29.85,West,270,8.1,8.1,97,0.00,OVC,,0.00,WeatherDisplay:10.37,2013-02-16 03:13:00,
2013-02-15 22:18:00,30.0,29.0,29.85,NE,45,9.2,9.2,96,0.00,OVC,,0.00,WeatherDisplay:10.37,2013-02-16 03:18:00,
2013-02-15 22:23:00,29.8,28.8,29.85,NW,315,5.8,5.8,96,0.00,OVC,,0.00,WeatherDisplay:10.37,2013-02-16 03:23:00,
2013-02-15 22:28:00,29.5,28.2,29.85,West,270,9.4,9.4,95,0.00,OVC,,0.00,WeatherDisplay:10.37,2013-02-16 03:28:00,
2013-02-15 22:33:00,29.3,28.0,29.85,WNW,292,6.9,7.5,95,0.00,OVC,,0.00,WeatherDisplay:10.37,2013-02-16 03:33:00,
2013-02-15 22:38:00,29.3,27.8,29.85,West,270,6.9,6.9,94,0.00,OVC,,0.00,WeatherDisplay:10.37,2013-02-16 03:38:00,
2013-02-15 22:43:00,28.9,27.4,29.85,WNW,292,8.1,8.1,94,0.00,OVC,,0.00,WeatherDisplay:10.37,2013-02-16 03:43:00,
2013-02-15 22:48:00,28.8,27.3,29.85,West,270,6.9,6.9,94,0.00,OVC,,0.00,WeatherDisplay:10.37,2013-02-16 03:48:00,
2013-02-15 22:53:00,28.8,27.5,29.86,West,270,5.8,5.8,95,0.00,OVC,,0.00,WeatherDisplay:10.37,2013-02-16 03:53:00,
2013-02-15 22:58:00,28.8,27.3,29.86,West,270,6.9,6.9,94,0.00,OVC,,0.00,WeatherDisplay:10.37,2013-02-16 03:58:00,
2013-02-15 23:03:00,28.8,27.0,29.86,NNE,22,6.9,6.9,93,0.00,OVC,,0.00,WeatherDisplay:10.37,2013-02-16 04:03:00,
2013-02-15 23:08:00,28.6,26.6,29.86,NNW,338,5.8,5.8,92,0.00,OVC,,0.00,WeatherDisplay:10.37,2013-02-16 04:08:00,
2013-02-15 23:13:00,28.4,26.4,29.86,NW,315,6.9,6.9,92,0.00,OVC,,0.00,WeatherDisplay:10.37,2013-02-16 04:13:00,
2013-02-15 23:18:00,28.4,26.4,29.86,North,360,5.8,5.8,92,0.00,OVC,,0.00,WeatherDisplay:10.37,2013-02-16 04:18:00,
2013-02-15 23:23:00,28.2,26.2,29.86,NNE,22,5.8,5.8,92,0.00,OVC,,0.00,WeatherDisplay:10.37,2013-02-16 04:23:00,
2013-02-15 23:28:00,28.2,26.2,29.86,NNE,22,8.1,8.1,92,0.00,OVC,,0.00,WeatherDisplay:10.37,2013-02-16 04:28:00,
2013-02-15 23:33:00,28.0,26.0,29.86,NW,315,4.6,4.6,92,0.00,OVC,,0.00,WeatherDisplay:10.37,2013-02-16 04:33:00,
2013-02-15 23:38:00,28.0,26.2,29.85,East,90,5.3,5.3,93,0.00,OVC,,0.00,WeatherDisplay:10.37,2013-02-16 04:38:00,
2013-02-15 23:43:00,27.9,26.1,29.85,East,90,2.3,2.3,93,0.00,OVC,,0.00,WeatherDisplay:10.37,2013-02-16 04:43:00,
2013-02-15 23:48:00,27.7,25.9,29.85,WNW,292,4.6,4.6,93,0.00,OVC,,0.00,WeatherDisplay:10.37,2013-02-16 04:48:00,
2013-02-15 23:53:00,27.7,26.5,29.85,West,270,4.6,4.6,95,0.00,OVC,,0.00,WeatherDisplay:10.37,2013-02-16 04:53:00,
2013-02-15 23:58:00,27.5,26.3,29.85,NW,315,3.5,3.5,95,0.00,OVC,,0.00,WeatherDisplay:10.37,2013-02-16 04:58:00,